createdAt,value
2022-10-03T00:00:17.105Z,11.49
2022-10-03T00:03:19.221Z,11.51
2022-10-03T00:06:35.203Z,11.53
2022-10-03T00:09:25.021Z,11.47
2022-10-03T00:12:19.819Z,11.51
2022-10-03T00:14:59.075Z,11.50
2022-10-03T00:18:03.426Z,11.51
2022-10-03T00:21:19.481Z,11.50
2022-10-03T00:24:18.665Z,11.52
2022-10-03T00:27:28.535Z,11.45
2022-10-03T00:30:16.178Z,11.45
2022-10-03T00:33:21.300Z,11.41
2022-10-03T00:36:21.936Z,11.40
2022-10-03T00:39:25.433Z,11.36
2022-10-03T00:42:31.832Z,11.39
2022-10-03T00:45:16.908Z,11.34
2022-10-03T00:48:40.515Z,11.29
2022-10-03T00:51:19.987Z,11.33
2022-10-03T00:54:08.833Z,11.33
2022-10-03T00:56:56.441Z,11.39
2022-10-03T01:00:13.435Z,11.38
2022-10-03T01:02:46.959Z,11.28
2022-10-03T01:05:52.492Z,11.28
2022-10-03T01:12:10.677Z,11.17
2022-10-03T01:18:27.319Z,11.19
2022-10-03T01:21:09.752Z,11.22
2022-10-03T01:24:24.151Z,11.15
2022-10-03T01:27:02.287Z,11.13
2022-10-03T01:30:02.575Z,11.14
2022-10-03T01:32:39.050Z,11.09
2022-10-03T01:35:32.585Z,11.04
2022-10-03T01:38:40.709Z,11.00
2022-10-03T01:41:23.706Z,11.04
2022-10-03T01:44:04.953Z,10.98
2022-10-03T01:46:49.235Z,10.94
2022-10-03T01:49:41.887Z,10.89
2022-10-03T01:52:35.722Z,10.94
2022-10-03T01:55:37.529Z,10.99
2022-10-03T01:58:11.895Z,11.04
2022-10-03T02:00:56.487Z,11.05
2022-10-03T02:03:35.867Z,11.08
2022-10-03T02:06:06.726Z,11.11
2022-10-03T02:09:10.752Z,11.14
2022-10-03T02:11:51.790Z,11.16
2022-10-03T02:14:47.291Z,10.96
2022-10-03T02:18:03.065Z,10.90
2022-10-03T02:20:44.810Z,10.95
2022-10-03T02:23:38.437Z,10.96
2022-10-03T02:26:46.622Z,11.03
2022-10-03T02:29:50.019Z,10.96
2022-10-03T02:32:41.453Z,10.92
2022-10-03T02:35:46.690Z,10.86
2022-10-03T02:39:08.517Z,10.79
2022-10-03T02:42:23.726Z,10.79
2022-10-03T02:45:23.484Z,10.78
2022-10-03T02:48:19.855Z,10.75
2022-10-03T02:51:34.823Z,10.70
2022-10-03T02:54:47.962Z,10.67
2022-10-03T02:57:43.753Z,10.64
2022-10-03T03:00:21.822Z,10.63
2022-10-03T03:03:38.298Z,10.65
2022-10-03T03:06:35.267Z,10.58
2022-10-03T03:09:26.025Z,10.60
2022-10-03T03:12:40.365Z,10.55
2022-10-03T04:27:38.065Z,10.26
2022-10-03T04:30:33.124Z,10.26
2022-10-03T04:33:25.432Z,10.33
2022-10-03T04:36:33.687Z,10.34
2022-10-03T04:39:42.513Z,10.36
2022-10-03T04:42:37.687Z,10.37
2022-10-03T04:45:57.066Z,10.38
2022-10-03T04:48:46.725Z,10.35
2022-10-03T04:51:41.447Z,10.33
2022-10-03T04:54:24.163Z,10.33
2022-10-03T04:57:28.130Z,10.40
2022-10-03T05:00:23.665Z,10.40
2022-10-03T05:03:01.859Z,10.32
2022-10-03T05:05:55.445Z,10.31
2022-10-03T05:08:56.014Z,10.25
2022-10-03T05:11:56.237Z,10.29
2022-10-03T05:14:41.423Z,10.30
2022-10-03T05:17:45.716Z,10.31
2022-10-03T05:20:53.163Z,10.27
2022-10-03T05:24:15.628Z,10.24
2022-10-03T05:27:27.614Z,10.22
2022-10-03T05:30:07.803Z,10.23
2022-10-03T05:33:08.938Z,10.29
2022-10-03T05:36:18.630Z,10.33
2022-10-03T05:39:25.930Z,10.30
2022-10-03T06:15:59.713Z,10.53
2022-10-03T06:22:47.647Z,10.62
2022-10-03T06:29:25.091Z,10.66
2022-10-03T06:32:17.269Z,10.63
2022-10-03T06:35:26.731Z,10.72
2022-10-03T06:38:08.365Z,10.73
2022-10-03T06:41:04.386Z,10.71
2022-10-03T06:44:15.391Z,10.77
2022-10-03T07:38:23.275Z,11.22
2022-10-03T07:41:26.231Z,11.33
2022-10-03T07:44:35.874Z,11.41
2022-10-03T07:47:26.911Z,11.51
2022-10-03T07:50:25.742Z,11.56
2022-10-03T07:53:27.522Z,11.62
2022-10-03T07:56:20.593Z,11.63
2022-10-03T07:59:21.110Z,11.62
2022-10-03T08:02:27.174Z,11.65
2022-10-03T08:05:40.466Z,11.63
2022-10-03T08:08:19.567Z,11.72
2022-10-03T08:11:32.183Z,11.75
2022-10-03T08:14:18.175Z,11.67
2022-10-03T08:24:17.261Z,11.64
2022-10-03T08:27:24.425Z,11.73
2022-10-03T08:45:54.689Z,12.07
2022-10-03T09:07:17.128Z,11.91
2022-10-03T09:10:04.717Z,12.01
2022-10-03T09:45:11.227Z,12.42
2022-10-03T09:48:35.887Z,12.57
2022-10-03T09:51:29.960Z,12.82
2022-10-03T09:54:05.123Z,12.98
2022-10-03T09:56:55.083Z,12.93
2022-10-03T10:00:13.779Z,12.69
2022-10-03T10:03:16.160Z,12.53
2022-10-03T10:06:02.246Z,12.49
2022-10-03T10:08:50.722Z,12.52
2022-10-03T10:11:22.368Z,12.66
2022-10-03T10:14:45.963Z,12.56
2022-10-03T10:17:49.749Z,12.35
2022-10-03T10:20:31.150Z,12.23
2022-10-03T10:23:39.121Z,12.08
2022-10-03T10:26:43.768Z,11.99
2022-10-03T10:29:28.910Z,12.03
2022-10-03T10:32:46.195Z,12.14
2022-10-03T10:36:12.800Z,12.31
2022-10-03T10:39:33.209Z,12.41
2022-10-03T10:48:48.019Z,13.17
2022-10-03T10:51:51.814Z,13.18
2022-10-03T11:17:08.610Z,12.51
2022-10-03T11:20:29.712Z,12.46
2022-10-03T11:23:41.097Z,12.47
2022-10-03T11:26:44.030Z,12.59
2022-10-03T11:29:31.365Z,12.64
2022-10-03T11:36:20.076Z,12.55
2022-10-03T11:39:11.420Z,12.46
2022-10-03T11:42:00.771Z,12.31
2022-10-03T11:45:00.034Z,12.36
2022-10-03T11:47:44.710Z,12.29
2022-10-03T11:50:46.007Z,12.39
2022-10-03T11:53:41.163Z,12.47
2022-10-03T11:56:39.527Z,12.65
2022-10-03T11:59:47.956Z,12.84
2022-10-03T12:02:49.423Z,12.72
2022-10-03T12:06:23.468Z,12.56
2022-10-03T12:09:14.188Z,12.56
2022-10-03T12:11:56.481Z,12.61
2022-10-03T12:14:44.845Z,12.57
2022-10-03T12:17:16.002Z,12.54
2022-10-03T12:20:25.131Z,12.60
2022-10-03T12:23:15.170Z,12.66
2022-10-03T12:25:44.675Z,12.65
2022-10-03T12:28:29.705Z,12.87
2022-10-03T12:31:06.680Z,13.00
2022-10-03T12:33:48.373Z,13.02
2022-10-03T12:36:43.677Z,12.98
2022-10-03T12:39:43.591Z,12.99
2022-10-03T12:43:00.742Z,13.04
2022-10-03T12:45:54.694Z,13.06
2022-10-03T12:48:44.153Z,12.92
2022-10-03T12:51:21.579Z,12.83
2022-10-03T12:54:17.123Z,12.82
2022-10-03T12:57:28.527Z,13.00
2022-10-03T13:00:29.315Z,13.23
2022-10-03T13:03:32.695Z,13.29
2022-10-03T13:06:17.526Z,13.29
2022-10-03T13:09:18.999Z,13.35
2022-10-03T13:11:54.883Z,13.43
2022-10-03T13:15:00.187Z,13.36
2022-10-03T13:17:53.381Z,13.36
2022-10-03T13:20:34.267Z,13.57
2022-10-03T13:23:10.762Z,13.56
2022-10-03T13:25:45.773Z,13.77
2022-10-03T13:28:41.294Z,13.59
2022-10-03T13:31:15.283Z,13.61
2022-10-03T13:33:48.266Z,13.38
2022-10-03T13:36:36.881Z,13.36
2022-10-03T13:39:35.840Z,13.32
2022-10-03T13:42:41.009Z,13.20
2022-10-03T13:45:26.366Z,13.28
2022-10-03T13:48:05.233Z,13.38
2022-10-03T13:50:43.451Z,13.27
2022-10-03T13:53:25.903Z,13.20
2022-10-03T13:55:58.402Z,13.07
2022-10-03T13:58:58.565Z,13.02
2022-10-03T14:02:17.353Z,13.13
2022-10-03T14:05:27.319Z,13.10
2022-10-03T14:08:06.374Z,13.18
2022-10-03T14:11:19.538Z,13.31
2022-10-03T14:14:07.147Z,13.44
2022-10-03T14:17:01.991Z,13.55
2022-10-03T14:20:21.949Z,13.51
2022-10-03T14:23:23.306Z,13.60
2022-10-03T14:26:18.197Z,13.55
2022-10-03T14:29:09.037Z,13.44
2022-10-03T14:31:45.050Z,13.27
2022-10-03T14:34:27.162Z,13.10
2022-10-03T14:37:36.659Z,13.01
2022-10-03T14:40:17.839Z,12.95
2022-10-03T14:43:13.586Z,12.90
2022-10-03T14:45:46.559Z,12.94
2022-10-03T14:48:19.715Z,12.97
2022-10-03T14:50:51.028Z,12.96
2022-10-03T14:53:20.514Z,12.95
2022-10-03T14:56:06.668Z,13.08
2022-10-03T14:58:44.476Z,13.15
2022-10-03T15:01:20.657Z,13.22
2022-10-03T15:04:14.060Z,13.21
2022-10-03T15:06:54.479Z,13.12
2022-10-03T15:09:50.354Z,13.10
2022-10-03T15:12:24.677Z,13.11
2022-10-03T15:15:24.478Z,13.00
2022-10-03T15:18:19.093Z,12.95
2022-10-03T15:20:48.841Z,12.89
2022-10-03T15:23:21.544Z,12.89
2022-10-03T15:25:53.148Z,12.81
2022-10-03T15:28:29.450Z,12.83
2022-10-03T15:31:14.540Z,12.77
2022-10-03T15:33:49.585Z,12.67
2022-10-03T15:36:24.748Z,12.67
2022-10-03T15:39:24.886Z,12.71
2022-10-03T15:42:48.852Z,12.69
2022-10-03T15:45:29.650Z,12.65
2022-10-03T15:48:08.141Z,12.71
2022-10-03T15:50:44.122Z,12.71
2022-10-03T15:53:37.015Z,12.68
2022-10-03T15:56:15.484Z,12.61
2022-10-03T15:58:50.180Z,12.66
2022-10-03T16:01:25.758Z,12.50
2022-10-03T16:04:02.341Z,12.46
2022-10-03T16:06:59.871Z,12.46
2022-10-03T16:09:42.230Z,12.38
2022-10-03T16:12:52.406Z,12.35
2022-10-03T16:16:04.983Z,12.36
2022-10-03T16:18:43.094Z,12.33
2022-10-03T16:21:16.199Z,12.32
2022-10-03T16:23:45.939Z,12.25
2022-10-03T16:26:27.665Z,12.24
2022-10-03T16:29:23.165Z,12.27
2022-10-03T16:32:07.132Z,12.28
2022-10-03T16:34:37.068Z,12.28
2022-10-03T16:37:11.795Z,12.28
2022-10-03T16:39:44.893Z,12.29
2022-10-03T16:42:20.759Z,12.27
2022-10-03T16:44:57.113Z,12.29
2022-10-03T16:47:43.147Z,12.26
2022-10-03T16:50:24.870Z,12.21
2022-10-03T16:52:54.184Z,12.21
2022-10-03T16:55:40.961Z,12.14
2022-10-03T16:58:29.428Z,12.18
2022-10-03T17:01:26.394Z,12.20
2022-10-03T17:04:16.001Z,12.11
2022-10-03T17:06:47.620Z,12.10
2022-10-03T17:09:24.517Z,11.93
2022-10-03T17:11:57.449Z,11.90
2022-10-03T17:14:28.273Z,11.89
2022-10-03T17:17:04.834Z,11.91
2022-10-03T17:19:43.088Z,11.81
2022-10-03T17:22:21.251Z,11.76
2022-10-03T17:25:18.275Z,11.73
2022-10-03T17:27:49.734Z,11.75
2022-10-03T17:30:35.415Z,11.70
2022-10-03T17:33:13.176Z,11.69
2022-10-03T17:36:27.650Z,11.59
2022-10-03T17:39:04.891Z,11.55
2022-10-03T17:41:42.979Z,11.54
2022-10-03T17:44:33.750Z,11.51
2022-10-03T17:47:23.654Z,11.55
2022-10-03T17:50:14.941Z,11.54
2022-10-03T17:52:46.002Z,11.49
2022-10-03T17:55:37.903Z,11.47
2022-10-03T17:58:07.894Z,11.40
2022-10-03T18:01:14.977Z,11.40
2022-10-03T18:03:49.774Z,11.33
2022-10-03T18:06:46.655Z,11.30
2022-10-03T18:09:40.675Z,11.24
2022-10-03T18:12:20.354Z,11.27
2022-10-03T18:15:37.800Z,11.19
2022-10-03T18:19:01.724Z,11.06
2022-10-03T18:21:56.994Z,11.05
2022-10-03T18:25:01.422Z,10.95
2022-10-03T18:28:17.633Z,10.99
2022-10-03T18:30:50.735Z,10.98
2022-10-03T18:33:23.521Z,10.93
2022-10-03T18:35:50.863Z,10.96
2022-10-03T18:38:33.614Z,10.98
2022-10-03T18:41:03.055Z,10.94
2022-10-03T18:43:37.059Z,10.92
2022-10-03T18:46:39.765Z,10.89
2022-10-03T18:49:33.557Z,10.90
2022-10-03T18:52:29.951Z,10.95
2022-10-03T18:55:15.155Z,10.98
2022-10-03T18:58:00.295Z,10.98
2022-10-03T19:00:33.856Z,11.01
2022-10-03T19:03:13.495Z,11.04
2022-10-03T19:05:48.880Z,11.04
2022-10-03T19:08:21.480Z,11.05
2022-10-03T19:10:53.899Z,11.07
2022-10-03T19:13:56.655Z,11.13
2022-10-03T19:17:17.658Z,11.08
2022-10-03T19:19:59.945Z,11.07
2022-10-03T19:22:39.199Z,10.94
2022-10-03T19:25:16.918Z,10.98
2022-10-03T19:27:49.859Z,10.90
2022-10-03T19:30:22.117Z,10.83
2022-10-03T19:33:14.121Z,10.77
2022-10-03T19:35:47.606Z,10.73
2022-10-03T19:38:24.514Z,10.63
2022-10-03T19:41:00.244Z,10.54
2022-10-03T19:43:49.522Z,10.51
2022-10-03T19:46:58.361Z,10.48
2022-10-03T19:49:45.673Z,10.46
2022-10-03T19:52:32.870Z,10.43
2022-10-03T19:55:14.931Z,10.39
2022-10-03T19:58:00.088Z,10.33
2022-10-03T20:00:32.832Z,10.32
2022-10-03T20:03:30.186Z,10.27
2022-10-03T20:06:19.084Z,10.24
2022-10-03T20:08:56.567Z,10.17
2022-10-03T20:11:46.487Z,10.18
2022-10-03T20:14:27.096Z,10.21
2022-10-03T20:16:58.847Z,10.28
2022-10-03T20:19:27.866Z,10.29
2022-10-03T20:22:02.663Z,10.29
2022-10-03T20:24:44.656Z,10.30
2022-10-03T20:27:51.020Z,10.29
2022-10-03T20:30:37.454Z,10.27
2022-10-03T20:33:05.519Z,10.30
2022-10-03T20:36:19.917Z,10.32
2022-10-03T20:39:16.120Z,10.29
2022-10-03T20:42:10.794Z,10.26
2022-10-03T20:45:14.378Z,10.24
2022-10-03T20:48:03.972Z,10.18
2022-10-03T20:50:45.523Z,10.23
2022-10-03T20:53:31.587Z,10.17
2022-10-03T20:56:10.549Z,10.17
2022-10-03T20:58:54.013Z,10.11
2022-10-03T21:01:26.153Z,10.10
2022-10-03T21:04:28.452Z,10.07
2022-10-03T21:07:22.678Z,10.08
2022-10-03T21:10:40.090Z,10.05
2022-10-03T21:13:14.307Z,10.00
2022-10-03T21:15:53.668Z,10.03
2022-10-03T21:18:27.450Z,10.00
2022-10-03T21:21:18.159Z,9.96
2022-10-03T21:24:02.126Z,9.93
2022-10-03T21:26:37.648Z,9.86
2022-10-03T21:29:25.607Z,9.87
2022-10-03T21:32:44.883Z,9.87
2022-10-03T21:35:39.056Z,9.88
2022-10-03T21:38:29.362Z,9.76
2022-10-03T21:41:18.011Z,9.80
2022-10-03T21:44:10.788Z,9.84
2022-10-03T21:47:05.936Z,9.80
2022-10-03T21:49:57.303Z,9.83
2022-10-03T21:52:50.330Z,9.85
2022-10-03T21:55:51.643Z,9.92
2022-10-03T21:58:57.525Z,9.97
2022-10-03T22:01:52.660Z,9.97
2022-10-03T22:04:26.154Z,9.98
2022-10-03T22:07:13.945Z,10.00
2022-10-03T22:09:49.203Z,10.04
2022-10-03T22:12:17.473Z,10.09
2022-10-03T22:15:08.511Z,10.10
2022-10-03T22:18:14.948Z,10.12
2022-10-03T22:21:06.093Z,10.12
2022-10-03T22:23:56.266Z,10.12
2022-10-03T22:26:58.751Z,10.15
2022-10-03T22:29:43.745Z,10.20
2022-10-03T22:32:18.480Z,10.27
2022-10-03T22:35:11.346Z,10.30
2022-10-03T22:37:38.954Z,10.31
2022-10-03T22:40:06.414Z,10.29
2022-10-03T22:42:42.580Z,10.32
2022-10-03T22:45:11.869Z,10.32
2022-10-03T22:47:40.220Z,10.34
2022-10-03T22:50:12.270Z,10.32
2022-10-03T22:52:43.005Z,10.30
2022-10-03T22:55:14.472Z,10.38
2022-10-03T22:57:43.438Z,10.34
2022-10-03T23:00:13.497Z,10.33
2022-10-03T23:02:58.602Z,10.33
2022-10-03T23:06:04.365Z,10.27
2022-10-03T23:09:17.118Z,10.26
2022-10-03T23:11:47.914Z,10.26
2022-10-03T23:14:18.046Z,10.26
2022-10-03T23:16:55.425Z,10.23
2022-10-03T23:20:05.214Z,10.25
2022-10-03T23:22:35.325Z,10.27
2022-10-03T23:25:07.273Z,10.22
2022-10-03T23:27:48.483Z,10.26
2022-10-03T23:30:45.426Z,10.31
2022-10-03T23:33:17.135Z,10.30
2022-10-03T23:35:44.319Z,10.35
2022-10-03T23:38:52.239Z,10.30
2022-10-03T23:41:44.142Z,10.28
2022-10-03T23:44:58.336Z,10.25
2022-10-03T23:47:39.063Z,10.25
2022-10-03T23:50:07.788Z,10.21
2022-10-03T23:52:48.769Z,10.18
2022-10-03T23:55:22.332Z,10.20
2022-10-03T23:57:49.228Z,10.16
